Time;durP1;ratioP1;P1;durP2;ratioP2;P2;SDS_P1;SDS_P2;PMS_P1;PMS_P2;Temp;Humidity;BMP_temperature;BMP_pressure;BME280_temperature;BME280_humidity;BME280_pressure;Samples;Min_cycle;Max_cycle;Signal;HPM_P1;HPM_P2
2022/01/10 00:00:37;;;;;;;21.80;4.88;;;3.40;99.90;;;;;;5032893;28;20042;-67
2022/01/10 00:03:03;;;;;;;17.38;4.80;;;3.20;99.90;;;;;;5031566;28;20048;-66
2022/01/10 00:05:29;;;;;;;22.02;5.00;;;;;;;;;;5031701;28;20138;-66
2022/01/10 00:07:55;;;;;;;17.33;4.82;;;3.20;99.90;;;;;;5032821;28;20085;-67
2022/01/10 00:10:21;;;;;;;13.20;4.50;;;3.10;99.90;;;;;;5015081;28;20072;-67
2022/01/10 00:12:47;;;;;;;23.58;5.85;;;3.00;99.90;;;;;;5034875;28;20044;-66
2022/01/10 00:15:15;;;;;;;14.45;5.00;;;3.10;99.90;;;;;;5036329;28;20092;-66
2022/01/10 00:17:44;;;;;;;15.57;4.97;;;3.10;99.90;;;;;;5001902;28;20037;-66
2022/01/10 00:20:13;;;;;;;13.80;4.20;;;3.10;99.90;;;;;;5018533;28;20124;-67
2022/01/10 00:22:40;;;;;;;13.52;4.40;;;2.80;99.90;;;;;;5002145;28;20041;-66
2022/01/10 00:25:07;;;;;;;24.25;6.65;;;2.80;99.90;;;;;;5002059;28;20041;-66
2022/01/10 00:27:33;;;;;;;19.70;4.82;;;;;;;;;;5018348;28;20509;-66
2022/01/10 00:29:59;;;;;;;17.15;5.90;;;2.90;99.90;;;;;;5002170;28;20053;-66
2022/01/10 00:32:24;;;;;;;12.35;5.22;;;3.00;99.90;;;;;;5035806;28;20041;-66
2022/01/10 00:34:51;;;;;;;15.95;5.80;;;2.90;99.90;;;;;;5036191;28;20041;-66
2022/01/10 00:37:17;;;;;;;11.27;5.18;;;3.00;99.90;;;;;;5035809;28;20475;-66
2022/01/10 00:39:42;;;;;;;17.35;5.43;;;2.90;99.90;;;;;;5036017;28;20044;-66
2022/01/10 00:42:08;;;;;;;16.88;5.22;;;2.80;99.90;;;;;;5018043;28;20104;-66
2022/01/10 00:44:39;;;;;;;15.30;5.60;;;2.90;99.90;;;;;;5001981;28;20037;-66
2022/01/10 00:47:05;;;;;;;16.50;5.50;;;2.80;99.90;;;;;;5017912;28;20495;-66
2022/01/10 00:49:31;;;;;;;10.43;5.00;;;;;;;;;;5001919;28;20091;-66
2022/01/10 00:51:56;;;;;;;14.80;4.15;;;2.60;99.90;;;;;;5017844;28;20099;-66
2022/01/10 00:54:22;;;;;;;18.13;4.82;;;2.40;99.90;;;;;;5035770;28;20041;-66
2022/01/10 00:56:48;;;;;;;13.20;3.92;;;;;;;;;;5017790;28;20045;-66
2022/01/10 00:59:13;;;;;;;20.60;4.70;;;2.20;99.90;;;;;;5017922;28;20045;-66
2022/01/10 01:01:40;;;;;;;15.10;4.25;;;2.20;99.90;;;;;;5017661;28;20029;-66
2022/01/10 01:04:06;;;;;;;11.73;5.38;;;2.20;99.90;;;;;;5001477;28;20114;-66
2022/01/10 01:06:32;;;;;;;12.57;4.20;;;2.20;99.90;;;;;;5001392;28;20084;-66
2022/01/10 01:09:02;;;;;;;11.18;3.80;;;2.40;99.90;;;;;;5023363;28;20056;-66
2022/01/10 01:14:11;;;;;;;10.35;4.57;;;2.20;99.90;;;;;;5034121;28;20071;-66
2022/01/10 01:24:16;;;;;;;14.50;4.85;;;;;;;;;;4993402;28;20072;-66
2022/01/10 01:26:45;;;;;;;14.75;4.53;;;2.00;99.90;;;;;;5033901;28;20045;-66
2022/01/10 01:29:14;;;;;;;14.80;5.40;;;2.00;99.90;;;;;;5033723;28;20095;-66
2022/01/10 01:31:40;;;;;;;9.40;5.05;;;1.90;99.90;;;;;;5033920;28;20402;-66
2022/01/10 01:34:07;;;;;;;23.08;7.13;;;1.80;99.90;;;;;;5035193;28;20468;-66
2022/01/10 01:36:34;;;;;;;15.10;5.53;;;1.70;99.90;;;;;;5034777;28;20124;-66
2022/01/10 01:39:04;;;;;;;10.32;4.95;;;1.80;99.90;;;;;;5034802;28;20049;-66
2022/01/10 01:43:55;;;;;;;9.50;4.95;;;1.80;99.90;;;;;;5033827;28;20128;-66
2022/01/10 01:46:22;;;;;;;8.43;4.35;;;1.60;99.90;;;;;;5033322;28;20056;-66
2022/01/10 01:48:49;;;;;;;12.02;4.50;;;1.60;99.90;;;;;;5033310;28;20037;-66
2022/01/10 01:51:15;;;;;;;17.15;4.65;;;1.60;99.90;;;;;;5033492;28;20056;-67
2022/01/10 01:53:41;;;;;;;11.68;4.80;;;;;;;;;;5033704;28;20041;-66
2022/01/10 01:56:09;;;;;;;9.43;3.83;;;1.40;99.90;;;;;;5016927;28;20046;-66
2022/01/10 01:58:36;;;;;;;9.25;4.07;;;1.50;99.90;;;;;;5013460;28;20045;-66
2022/01/10 02:01:03;;;;;;;14.27;4.32;;;1.40;99.90;;;;;;5014828;28;20120;-66
2022/01/10 02:03:29;;;;;;;16.75;4.90;;;1.40;99.90;;;;;;5013738;28;20499;-66
2022/01/10 02:05:55;;;;;;;6.68;4.15;;;1.30;99.90;;;;;;5013456;28;20084;-66
2022/01/10 02:08:21;;;;;;;8.85;4.65;;;;;;;;;;5013091;28;20049;-66
2022/01/10 02:10:47;;;;;;;12.45;5.10;;;1.30;99.90;;;;;;5029871;28;20129;-66
2022/01/10 02:13:13;;;;;;;9.85;5.35;;;1.20;99.90;;;;;;5014692;28;20121;-66
2022/01/10 02:15:57;;;;;;;14.77;5.10;;;1.20;99.90;;;;;;5013339;28;20124;-66
2022/01/10 02:18:24;;;;;;;10.57;4.82;;;1.10;99.90;;;;;;5013527;28;20531;-66
2022/01/10 02:20:50;;;;;;;9.05;3.95;;;1.00;99.90;;;;;;4996718;28;20042;-66
2022/01/10 02:23:17;;;;;;;10.45;4.95;;;1.00;99.90;;;;;;5029490;28;20084;-66
2022/01/10 02:25:44;;;;;;;15.75;5.22;;;0.90;99.90;;;;;;5013240;28;20384;-67
2022/01/10 02:28:10;;;;;;;14.68;5.88;;;;;;;;;;5014027;28;20117;-66
2022/01/10 02:30:35;;;;;;;12.18;4.70;;;1.00;99.90;;;;;;5013260;28;20042;-66
2022/01/10 02:33:02;;;;;;;11.65;5.05;;;0.80;99.90;;;;;;5012820;28;20117;-66
2022/01/10 02:35:33;;;;;;;11.30;5.60;;;;;;;;;;5012789;28;20077;-66
2022/01/10 02:37:58;;;;;;;16.73;7.20;;;0.90;99.90;;;;;;5012855;28;20048;-66
2022/01/10 02:40:26;;;;;;;22.30;7.35;;;0.80;99.90;;;;;;5012768;28;20125;-66
2022/01/10 02:42:53;;;;;;;16.33;6.60;;;;;;;;;;5012797;28;20030;-66
2022/01/10 02:45:19;;;;;;;10.77;5.50;;;;;;;;;;5012879;28;20492;-66
2022/01/10 02:47:46;;;;;;;10.05;5.00;;;;;;;;;;5029323;28;20049;-66
2022/01/10 02:50:12;;;;;;;24.02;8.23;;;1.00;99.90;;;;;;5013118;28;20042;-66
2022/01/10 02:52:38;;;;;;;13.35;6.10;;;;;;;;;;5015978;28;20041;-66
2022/01/10 02:55:06;;;;;;;13.40;5.85;;;1.00;99.90;;;;;;5032477;28;20049;-66
2022/01/10 02:57:33;;;;;;;14.13;5.80;;;;;;;;;;5032235;28;20099;-66
2022/01/10 02:59:59;;;;;;;20.83;6.40;;;;;;;;;;5033586;28;20041;-66
2022/01/10 03:02:30;;;;;;;17.65;6.00;;;0.90;99.90;;;;;;5032380;28;20391;-66
2022/01/10 03:04:56;;;;;;;19.17;6.65;;;;;;;;;;5032441;28;20077;-66
2022/01/10 03:07:23;;;;;;;12.75;5.47;;;1.00;99.90;;;;;;5032357;28;20530;-66
2022/01/10 03:09:52;;;;;;;14.90;6.00;;;1.10;99.90;;;;;;5031954;28;20085;-66
2022/01/10 03:12:18;;;;;;;16.13;7.38;;;;;;;;;;5031916;28;20047;-66
2022/01/10 03:14:44;;;;;;;14.68;6.28;;;1.00;99.90;;;;;;5033360;28;20116;-66
2022/01/10 03:17:11;;;;;;;10.07;6.00;;;0.90;99.90;;;;;;5031907;28;20045;-66
2022/01/10 03:19:38;;;;;;;12.00;5.78;;;0.90;99.90;;;;;;5032088;28;20041;-66
2022/01/10 03:22:04;;;;;;;17.63;7.22;;;0.90;99.90;;;;;;5033411;28;20045;-66
2022/01/10 03:24:30;;;;;;;28.55;7.88;;;0.90;99.90;;;;;;5015574;28;20045;-66
2022/01/10 03:26:56;;;;;;;11.63;5.95;;;0.90;99.90;;;;;;5015395;28;20041;-66
2022/01/10 03:29:21;;;;;;;20.13;6.43;;;0.90;99.90;;;;;;5032180;28;20087;-66
2022/01/10 03:31:47;;;;;;;18.27;7.78;;;0.70;99.90;;;;;;5033181;28;20124;-65
2022/01/10 03:34:13;;;;;;;14.32;7.70;;;0.80;99.90;;;;;;5031782;28;20041;-65
2022/01/10 03:36:40;;;;;;;19.67;8.63;;;0.70;99.90;;;;;;5033174;28;20045;-65
2022/01/10 03:39:06;;;;;;;22.67;9.05;;;0.90;99.90;;;;;;5031807;28;20080;-65
2022/01/10 03:41:32;;;;;;;24.25;8.75;;;;;;;;;;5033053;28;20073;-65
2022/01/10 03:43:58;;;;;;;19.67;8.25;;;;;;;;;;5033054;28;20045;-65
2022/01/10 03:46:24;;;;;;;17.80;7.75;;;0.90;99.90;;;;;;5031880;28;20167;-65
2022/01/10 03:48:49;;;;;;;20.08;8.98;;;0.90;99.90;;;;;;5036793;28;20116;-65
2022/01/10 03:51:15;;;;;;;18.42;8.40;;;0.90;99.90;;;;;;5019053;28;20045;-65
2022/01/10 03:53:41;;;;;;;17.60;8.10;;;1.00;99.90;;;;;;5035884;28;20034;-64
2022/01/10 03:56:06;;;;;;;16.75;7.78;;;0.90;99.90;;;;;;5035824;28;20124;-64
2022/01/10 03:58:32;;;;;;;14.93;8.73;;;;;;;;;;5036009;28;20045;-64
2022/01/10 04:01:00;;;;;;;15.48;7.65;;;;;;;;;;5019281;28;20041;-64
2022/01/10 04:03:25;;;;;;;12.88;6.78;;;1.00;99.90;;;;;;5035406;28;20042;-64
2022/01/10 04:05:51;;;;;;;17.63;7.88;;;0.80;99.90;;;;;;5019823;28;20045;-64
2022/01/10 04:08:16;;;;;;;18.35;7.07;;;0.80;99.90;;;;;;5018987;28;20057;-64
2022/01/10 04:10:42;;;;;;;11.50;5.95;;;0.90;99.90;;;;;;5036836;28;20045;-65
2022/01/10 04:13:07;;;;;;;13.70;7.05;;;0.80;99.90;;;;;;5019875;28;20049;-64
2022/01/10 04:15:33;;;;;;;14.80;7.75;;;0.70;99.90;;;;;;5019198;28;20045;-65
2022/01/10 04:18:01;;;;;;;12.38;6.50;;;;;;;;;;5036501;28;20037;-64
2022/01/10 04:20:27;;;;;;;13.70;6.70;;;0.60;99.90;;;;;;5036613;28;20100;-65
2022/01/10 04:22:54;;;;;;;13.55;6.07;;;0.90;99.90;;;;;;5018725;28;20045;-65
2022/01/10 04:25:20;;;;;;;16.02;7.55;;;0.60;99.90;;;;;;5018370;28;20048;-64
2022/01/10 04:27:46;;;;;;;16.45;7.55;;;;;;;;;;5036243;28;20041;-65
2022/01/10 04:30:11;;;;;;;14.73;7.97;;;0.50;99.90;;;;;;5018780;28;20045;-64
2022/01/10 04:32:38;;;;;;;15.52;8.27;;;0.40;99.90;;;;;;5002508;28;20056;-65
2022/01/10 04:35:05;;;;;;;13.43;6.40;;;0.20;99.90;;;;;;5018517;28;20053;-64
2022/01/10 04:37:30;;;;;;;11.43;5.35;;;0.10;99.90;;;;;;5036135;28;20040;-64
2022/01/10 04:39:56;;;;;;;9.55;5.93;;;;;;;;;;5018369;28;20034;-64
2022/01/10 04:42:22;;;;;;;16.95;6.60;;;0.20;99.90;;;;;;5018531;28;20454;-65
2022/01/10 04:44:49;;;;;;;14.10;5.72;;;;;;;;;;5035879;28;20079;-64
2022/01/10 04:47:15;;;;;;;11.02;8.50;;;0.30;99.90;;;;;;5035689;28;20041;-65
2022/01/10 04:50:37;;;;;;;11.70;6.82;;;0.20;99.90;;;;;;5035738;28;20045;-64
2022/01/10 04:52:30;;;;;;;12.90;6.45;;;0.50;99.90;;;;;;5010421;28;20144;-64
2022/01/10 04:54:56;;;;;;;10.52;7.28;;;0.40;99.90;;;;;;5030599;28;20495;-65
2022/01/10 04:57:22;;;;;;;9.55;6.30;;;0.30;99.90;;;;;;5055400;28;20033;-65
2022/01/10 04:59:48;;;;;;;9.93;6.90;;;0.30;99.90;;;;;;5036680;28;20403;-65
2022/01/10 05:02:14;;;;;;;9.35;6.28;;;;;;;;;;5025732;28;20046;-65
2022/01/10 05:04:40;;;;;;;15.25;8.13;;;;;;;;;;5025675;28;20410;-64
2022/01/10 05:07:06;;;;;;;14.85;7.32;;;0.50;99.90;;;;;;5016998;28;20454;-64
2022/01/10 05:09:31;;;;;;;13.82;7.82;;;0.30;99.90;;;;;;5049401;28;20041;-64
2022/01/10 05:11:58;;;;;;;14.13;6.63;;;;;;;;;;5053977;28;20422;-64
2022/01/10 05:14:25;;;;;;;10.45;6.78;;;0.00;99.90;;;;;;5054086;28;20130;-66
2022/01/10 05:16:50;;;;;;;12.50;6.68;;;0.40;99.90;;;;;;5054106;28;20427;-65
2022/01/10 05:19:16;;;;;;;14.23;7.72;;;;;;;;;;5036380;28;20158;-65
2022/01/10 05:21:42;;;;;;;14.32;8.52;;;;;;;;;;5035914;28;20037;-65
2022/01/10 05:24:09;;;;;;;18.38;8.18;;;;;;;;;;5046575;28;20069;-64
2022/01/10 05:26:35;;;;;;;10.73;6.55;;;;;;;;;;5041929;28;20040;-65
2022/01/10 05:29:02;;;;;;;12.23;6.78;;;0.40;99.90;;;;;;5040924;28;20256;-65
2022/01/10 05:31:29;;;;;;;8.88;6.28;;;0.20;99.90;;;;;;5066975;28;20044;-65
2022/01/10 05:33:55;;;;;;;9.35;6.43;;;;;;;;;;5059033;28;20036;-65
2022/01/10 05:36:21;;;;;;;8.95;6.18;;;;;;;;;;5064520;28;20052;-65
2022/01/10 05:38:46;;;;;;;11.60;6.18;;;-0.10;99.90;;;;;;5045852;28;20071;-64
2022/01/10 05:41:13;;;;;;;8.95;5.97;;;0.00;99.90;;;;;;5046134;28;20038;-64
2022/01/10 05:43:38;;;;;;;13.98;7.60;;;;;;;;;;5066407;28;20033;-64
2022/01/10 05:46:08;;;;;;;13.30;7.55;;;0.10;99.90;;;;;;5071028;28;20039;-64
2022/01/10 05:48:35;;;;;;;13.57;8.23;;;0.10;99.90;;;;;;5074282;28;20036;-64
2022/01/10 05:51:01;;;;;;;15.90;9.43;;;;;;;;;;5066114;28;20041;-64
2022/01/10 05:53:28;;;;;;;20.58;10.65;;;0.10;99.90;;;;;;5050704;28;20087;-65
2022/01/10 05:55:54;;;;;;;18.30;8.50;;;0.10;99.90;;;;;;5074165;28;20505;-64
2022/01/10 05:58:20;;;;;;;10.63;7.78;;;-0.10;99.90;;;;;;5074165;28;20044;-65
2022/01/10 06:00:46;;;;;;;11.30;8.05;;;0.00;99.90;;;;;;5056138;28;20052;-65
2022/01/10 06:03:12;;;;;;;10.73;6.80;;;;;;;;;;5073732;28;20521;-65
2022/01/10 06:05:38;;;;;;;12.90;6.85;;;0.10;99.90;;;;;;5073018;28;20044;-65
2022/01/10 06:08:05;;;;;;;13.32;6.80;;;0.00;99.90;;;;;;5072694;28;20182;-65
2022/01/10 06:10:31;;;;;;;14.52;7.95;;;-0.20;99.90;;;;;;5052641;28;20098;-64
2022/01/10 06:12:57;;;;;;;12.32;8.05;;;;;;;;;;5033531;28;20487;-65
2022/01/10 06:15:23;;;;;;;10.30;8.35;;;-0.30;99.90;;;;;;5048856;28;20052;-65
2022/01/10 06:17:50;;;;;;;14.40;8.32;;;;;;;;;;5032455;28;20556;-65
2022/01/10 06:20:16;;;;;;;13.88;9.23;;;;;;;;;;5030079;28;20503;-67
2022/01/10 06:22:43;;;;;;;15.15;8.45;;;;;;;;;;5012258;28;20052;-64
2022/01/10 06:25:11;;;;;;;19.77;10.25;;;;;;;;;;5012286;28;20054;-64
2022/01/10 06:27:37;;;;;;;21.08;10.55;;;;;;;;;;5012123;28;20123;-65
2022/01/10 06:30:04;;;;;;;18.17;10.20;;;0.30;99.90;;;;;;5012253;28;20506;-65
2022/01/10 06:32:30;;;;;;;26.10;12.10;;;;;;;;;;5030108;28;20072;-65
2022/01/10 06:34:57;;;;;;;23.10;10.50;;;;;;;;;;5029997;28;20559;-64
2022/01/10 06:37:23;;;;;;;17.83;10.75;;;;;;;;;;5053030;28;20098;-63
2022/01/10 06:39:49;;;;;;;12.60;8.38;;;0.00;99.90;;;;;;5029557;28;20064;-64
2022/01/10 06:42:14;;;;;;;18.75;9.13;;;0.00;99.90;;;;;;5053360;28;20036;-64
2022/01/10 06:44:40;;;;;;;16.15;9.80;;;0.00;99.90;;;;;;5022316;28;20539;-64
2022/01/10 06:47:06;;;;;;;16.00;8.75;;;0.00;99.90;;;;;;5016544;28;20048;-65
2022/01/10 06:49:31;;;;;;;13.43;8.02;;;0.00;99.90;;;;;;5053051;28;20051;-64
2022/01/10 06:51:57;;;;;;;15.90;7.85;;;-0.20;99.90;;;;;;5032650;28;20125;-64
2022/01/10 06:54:22;;;;;;;16.55;8.93;;;0.00;99.90;;;;;;5014872;28;20037;-64
2022/01/10 06:56:48;;;;;;;20.20;10.88;;;0.00;99.90;;;;;;5016225;28;20486;-64
2022/01/10 06:59:14;;;;;;;15.75;9.00;;;;;;;;;;5015366;28;20045;-64
2022/01/10 07:01:39;;;;;;;10.90;7.28;;;-0.10;99.90;;;;;;5011416;28;20077;-64
2022/01/10 07:04:05;;;;;;;18.48;8.93;;;-0.20;99.90;;;;;;5026668;28;20049;-65
2022/01/10 07:06:31;;;;;;;20.55;9.98;;;-0.20;99.90;;;;;;5007283;28;20463;-64
2022/01/10 07:08:56;;;;;;;19.48;9.32;;;;;;;;;;5013248;28;20415;-65
2022/01/10 07:11:23;;;;;;;28.13;11.35;;;-0.20;99.90;;;;;;5063789;28;20426;-64
2022/01/10 07:13:49;;;;;;;17.73;9.35;;;-0.20;99.90;;;;;;5042802;28;20057;-64
2022/01/10 07:16:15;;;;;;;20.23;9.77;;;-0.20;99.90;;;;;;5059874;28;20386;-64
2022/01/10 07:18:41;;;;;;;24.17;13.00;;;-0.20;99.90;;;;;;5042886;28;20056;-64
2022/01/10 07:21:06;;;;;;;20.35;11.80;;;-0.20;99.90;;;;;;5055009;28;20059;-64
2022/01/10 07:23:32;;;;;;;17.42;9.75;;;-0.20;99.90;;;;;;5060211;28;20041;-64
2022/01/10 07:25:58;;;;;;;20.67;10.23;;;-0.20;99.90;;;;;;5060279;28;20037;-64
2022/01/10 07:28:24;;;;;;;22.25;11.43;;;-0.20;99.90;;;;;;5029115;28;20069;-64
2022/01/10 07:30:49;;;;;;;18.50;10.25;;;-0.20;99.90;;;;;;5059897;28;20048;-62
2022/01/10 07:33:16;;;;;;;17.08;11.20;;;-0.10;99.90;;;;;;5052609;28;20080;-62
2022/01/10 07:35:42;;;;;;;17.80;10.75;;;-0.10;99.90;;;;;;5052066;28;20045;-63
2022/01/10 07:38:07;;;;;;;16.58;9.95;;;-0.20;99.90;;;;;;5057646;28;20039;-62
2022/01/10 07:40:33;;;;;;;19.25;10.32;;;-0.30;99.90;;;;;;5034472;28;20091;-65
2022/01/10 07:42:59;;;;;;;19.45;11.32;;;-0.30;99.90;;;;;;5063244;28;20032;-66
2022/01/10 07:45:25;;;;;;;20.77;11.20;;;;;;;;;;5066024;28;20091;-65
2022/01/10 07:47:51;;;;;;;21.05;11.75;;;-0.20;99.90;;;;;;5065217;28;20045;-65
2022/01/10 07:50:17;;;;;;;27.40;14.27;;;-0.10;99.90;;;;;;5061830;28;20036;-66
2022/01/10 07:52:42;;;;;;;24.95;14.75;;;-0.10;99.90;;;;;;5064663;28;20115;-65
2022/01/10 07:55:09;;;;;;;22.73;12.80;;;0.00;99.90;;;;;;5067587;28;20029;-65
2022/01/10 07:57:35;;;;;;;26.35;14.82;;;;;;;;;;5067418;28;20081;-66
2022/01/10 08:00:01;;;;;;;27.90;14.10;;;0.00;99.90;;;;;;5030640;28;20050;-65
2022/01/10 08:02:27;;;;;;;22.33;13.57;;;;;;;;;;5060768;28;20043;-66
2022/01/10 08:04:52;;;;;;;22.73;11.90;;;0.10;99.90;;;;;;5057184;28;20061;-66
2022/01/10 08:07:18;;;;;;;32.22;13.98;;;0.00;99.90;;;;;;5054032;28;20494;-67
2022/01/10 08:09:44;;;;;;;22.30;11.52;;;;;;;;;;5036932;28;20725;-68
2022/01/10 08:12:10;;;;;;;23.45;12.55;;;0.00;99.90;;;;;;5013143;28;20563;-68
2022/01/10 08:14:36;;;;;;;21.40;10.18;;;0.00;99.90;;;;;;5024220;28;20098;-68
2022/01/10 08:17:02;;;;;;;21.17;11.55;;;-0.10;99.90;;;;;;5046985;28;20048;-67
2022/01/10 08:19:30;;;;;;;22.95;11.68;;;;;;;;;;5045831;28;20045;-66
2022/01/10 08:21:56;;;;;;;19.40;11.68;;;0.20;99.90;;;;;;5027733;28;20041;-67
2022/01/10 08:24:23;;;;;;;19.58;12.18;;;0.00;99.90;;;;;;5017342;28;20487;-68
2022/01/10 08:26:50;;;;;;;23.77;12.13;;;0.10;99.90;;;;;;4994831;28;20081;-67
2022/01/10 08:29:16;;;;;;;22.35;11.18;;;;;;;;;;5012681;28;20177;-67
2022/01/10 08:31:41;;;;;;;20.58;11.05;;;0.00;99.90;;;;;;5011185;28;20550;-68
2022/01/10 08:34:07;;;;;;;17.73;10.68;;;0.20;99.90;;;;;;5023207;28;20062;-67
2022/01/10 08:36:34;;;;;;;20.73;12.25;;;0.30;99.90;;;;;;5015513;28;20046;-66
2022/01/10 08:39:00;;;;;;;18.80;11.70;;;0.80;99.90;;;;;;4999364;28;20042;-66
2022/01/10 08:41:26;;;;;;;17.15;10.75;;;;;;;;;;5029715;28;20045;-62
2022/01/10 08:43:52;;;;;;;21.25;11.90;;;0.80;99.90;;;;;;5010842;28;20852;-63
2022/01/10 08:46:17;;;;;;;20.77;10.90;;;;;;;;;;5031327;28;20075;-64
2022/01/10 08:48:44;;;;;;;21.42;11.60;;;;;;;;;;5003339;28;20134;-63
2022/01/10 08:51:10;;;;;;;14.07;9.77;;;1.10;99.90;;;;;;5014729;28;20089;-63
2022/01/10 08:53:36;;;;;;;17.35;11.48;;;;;;;;;;5021381;28;20108;-64
2022/01/10 08:56:02;;;;;;;20.27;11.50;;;1.50;99.90;;;;;;5013473;28;20038;-64
2022/01/10 08:58:32;;;;;;;26.73;14.40;;;;;;;;;;4996130;28;20480;-61
2022/01/10 09:01:05;;;;;;;24.60;13.52;;;;;;;;;;5017976;28;20091;-63
2022/01/10 09:03:32;;;;;;;24.65;13.45;;;1.80;99.90;;;;;;5030316;28;20522;-62
2022/01/10 09:05:58;;;;;;;20.92;13.38;;;1.90;99.90;;;;;;5023127;28;20034;-61
2022/01/10 09:08:26;;;;;;;19.40;12.82;;;;;;;;;;4999717;28;20038;-62
2022/01/10 09:10:53;;;;;;;23.42;13.38;;;2.90;99.90;;;;;;5052328;28;20048;-63
2022/01/10 09:13:20;;;;;;;20.85;12.15;;;2.90;99.90;;;;;;5027663;28;20091;-64
2022/01/10 09:15:46;;;;;;;17.02;12.63;;;2.90;99.90;;;;;;5043952;28;20522;-64
2022/01/10 09:18:12;;;;;;;21.75;11.70;;;;;;;;;;5046570;28;20116;-65
2022/01/10 09:20:38;;;;;;;17.38;11.40;;;;;;;;;;5046253;28;20037;-65
2022/01/10 09:23:04;;;;;;;16.60;11.90;;;3.10;99.90;;;;;;5042409;28;20029;-64
2022/01/10 09:25:30;;;;;;;20.30;12.00;;;3.10;99.90;;;;;;5030546;28;20037;-64
2022/01/10 09:27:56;;;;;;;19.15;11.73;;;;;;;;;;5027117;28;20034;-64
2022/01/10 09:30:23;;;;;;;19.38;12.65;;;;;;;;;;5029171;28;20049;-64
2022/01/10 09:32:49;;;;;;;20.58;13.77;;;;;;;;;;5025444;28;20097;-64
2022/01/10 09:35:15;;;;;;;20.33;12.00;;;;;;;;;;5033693;28;20079;-63
2022/01/10 09:37:40;;;;;;;21.80;12.65;;;3.70;99.90;;;;;;5032854;28;20470;-64
2022/01/10 09:40:07;;;;;;;21.88;13.48;;;3.90;99.90;;;;;;5012279;28;20077;-66
2022/01/10 09:42:33;;;;;;;20.33;12.40;;;4.20;99.90;;;;;;5038637;28;20433;-64
2022/01/10 09:45:01;;;;;;;26.15;13.88;;;4.30;99.90;;;;;;5028773;28;20040;-64
2022/01/10 09:47:27;;;;;;;19.13;12.27;;;;;;;;;;5046390;28;20483;-64
2022/01/10 09:49:52;;;;;;;23.52;12.48;;;4.50;99.90;;;;;;5036182;28;20051;-63
2022/01/10 09:52:18;;;;;;;18.83;12.52;;;4.60;99.90;;;;;;5018687;28;20041;-63
2022/01/10 09:54:44;;;;;;;24.45;13.38;;;4.50;99.90;;;;;;5022918;28;20387;-63
2022/01/10 09:57:10;;;;;;;25.08;15.20;;;4.60;99.90;;;;;;5015026;28;20045;-64
2022/01/10 09:59:39;;;;;;;24.23;12.95;;;;;;;;;;5044624;28;20118;-63
2022/01/10 10:02:05;;;;;;;21.95;13.57;;;4.70;99.90;;;;;;5029144;28;20049;-64
2022/01/10 10:04:36;;;;;;;25.83;14.35;;;6.30;99.90;;;;;;5015318;28;20448;-64
2022/01/10 10:07:03;;;;;;;25.90;14.48;;;;;;;;;;5015479;28;20045;-65
2022/01/10 10:09:30;;;;;;;26.52;14.35;;;6.30;99.90;;;;;;5059236;28;20496;-64
2022/01/10 10:11:55;;;;;;;20.02;11.88;;;6.20;99.90;;;;;;5041537;28;20126;-64
2022/01/10 10:14:22;;;;;;;21.40;13.05;;;6.10;99.90;;;;;;5071694;28;20044;-64
2022/01/10 10:16:50;;;;;;;18.92;12.63;;;;;;;;;;5048293;28;20538;-65
2022/01/10 10:19:22;;;;;;;25.40;12.18;;;6.00;99.90;;;;;;5035036;28;20052;-64
2022/01/10 10:21:49;;;;;;;23.02;12.38;;;6.30;99.90;;;;;;5030428;28;20053;-65
2022/01/10 10:24:15;;;;;;;22.48;12.95;;;6.50;99.90;;;;;;5052952;28;20037;-63
2022/01/10 10:26:41;;;;;;;19.48;13.20;;;6.10;99.90;;;;;;5058419;28;20079;-64
2022/01/10 10:29:22;;;;;;;21.33;12.52;;;6.00;99.90;;;;;;5058203;28;20041;-64
2022/01/10 10:31:50;;;;;;;23.15;14.23;;;5.70;99.90;;;;;;5036324;28;20048;-63
2022/01/10 10:34:19;;;;;;;24.05;12.27;;;5.70;99.90;;;;;;5030174;28;20433;-64
2022/01/10 10:36:46;;;;;;;22.45;13.25;;;5.70;99.90;;;;;;5053209;28;20040;-63
2022/01/10 10:39:12;;;;;;;23.08;13.18;;;5.50;99.90;;;;;;5034541;28;20075;-62
2022/01/10 10:41:39;;;;;;;23.75;12.32;;;5.50;99.90;;;;;;5052416;28;20033;-63
2022/01/10 10:44:05;;;;;;;21.10;13.23;;;5.50;99.90;;;;;;5049731;28;20151;-63
2022/01/10 10:46:30;;;;;;;17.13;13.00;;;5.50;99.90;;;;;;5060123;28;20083;-64
2022/01/10 10:49:03;;;;;;;22.92;13.30;;;5.80;99.90;;;;;;5070729;28;20074;-64
2022/01/10 10:51:35;;;;;;;22.95;13.30;;;5.70;99.90;;;;;;5043450;28;20052;-64
2022/01/10 10:54:04;;;;;;;24.88;13.93;;;5.70;99.90;;;;;;5052852;28;20045;-65
2022/01/10 10:56:38;;;;;;;20.52;12.73;;;5.70;99.90;;;;;;5050388;28;20087;-64
2022/01/10 10:59:06;;;;;;;22.25;13.02;;;5.80;99.90;;;;;;5045994;28;20040;-65
2022/01/10 11:01:32;;;;;;;20.27;13.63;;;;;;;;;;5054993;28;20506;-63
2022/01/10 11:03:58;;;;;;;24.05;14.50;;;;;;;;;;5033447;28;20043;-64
2022/01/10 11:06:26;;;;;;;21.58;12.57;;;5.90;99.90;;;;;;5033257;28;20049;-63
2022/01/10 11:08:52;;;;;;;21.00;14.52;;;;;;;;;;5039711;28;20065;-64
2022/01/10 11:11:23;;;;;;;24.40;14.23;;;6.10;99.90;;;;;;5051192;28;20187;-63
2022/01/10 11:13:50;;;;;;;22.08;14.38;;;6.10;99.90;;;;;;5053081;28;20056;-63
2022/01/10 11:16:17;;;;;;;26.88;14.48;;;6.20;99.90;;;;;;5044441;28;20052;-63
2022/01/10 11:18:42;;;;;;;24.33;13.32;;;6.20;99.90;;;;;;5062456;28;20394;-63
2022/01/10 11:21:08;;;;;;;22.73;14.52;;;;;;;;;;5033930;28;20037;-64
2022/01/10 11:23:48;;;;;;;20.58;13.25;;;;;;;;;;5042237;28;20421;-63
2022/01/10 11:26:15;;;;;;;23.67;14.15;;;6.50;99.90;;;;;;5040160;28;20045;-63
2022/01/10 11:28:50;;;;;;;22.63;13.18;;;6.40;99.90;;;;;;5027546;28;20120;-62
2022/01/10 11:31:29;;;;;;;24.55;13.30;;;6.50;99.90;;;;;;5035009;28;20048;-62
2022/01/10 11:33:57;;;;;;;22.58;13.30;;;;;;;;;;4994163;28;20133;-64
2022/01/10 11:36:27;;;;;;;21.98;13.15;;;;;;;;;;5059016;28;20087;-63
2022/01/10 11:39:07;;;;;;;24.67;12.48;;;6.70;99.90;;;;;;5061291;28;20040;-64
2022/01/10 11:41:33;;;;;;;20.15;12.85;;;;;;;;;;5046340;28;20363;-64
2022/01/10 11:44:11;;;;;;;25.45;13.05;;;;;;;;;;5049418;28;20044;-64
2022/01/10 11:46:42;;;;;;;22.15;12.48;;;;;;;;;;5062954;28;20044;-63
2022/01/10 11:49:12;;;;;;;26.70;12.80;;;6.60;99.90;;;;;;5058133;28;20508;-63
2022/01/10 11:51:57;;;;;;;25.05;13.30;;;6.60;99.90;;;;;;5062575;28;20051;-63
2022/01/10 11:54:38;;;;;;;22.17;15.35;;;6.80;99.90;;;;;;5054764;28;20115;-63
2022/01/10 11:57:12;;;;;;;29.45;14.93;;;7.60;99.90;;;;;;5066573;28;20047;-63
2022/01/10 11:59:39;;;;;;;21.33;14.43;;;8.20;99.90;;;;;;5046676;28;20033;-63
2022/01/10 12:02:10;;;;;;;21.63;13.73;;;8.00;99.90;;;;;;5053608;28;20127;-63
2022/01/10 12:04:44;;;;;;;22.75;13.70;;;7.80;99.90;;;;;;5035135;28;20037;-63
2022/01/10 12:07:13;;;;;;;25.27;13.87;;;7.80;99.90;;;;;;5051542;28;20040;-63
2022/01/10 12:09:40;;;;;;;23.15;14.15;;;7.60;99.90;;;;;;5035920;28;20291;-63
2022/01/10 12:12:11;;;;;;;26.35;15.07;;;;;;;;;;5050533;28;20041;-64
2022/01/10 12:14:37;;;;;;;25.17;14.45;;;;;;;;;;5053303;28;20054;-63
2022/01/10 12:17:03;;;;;;;23.05;14.00;;;8.50;99.90;;;;;;5039296;28;20051;-63
2022/01/10 12:19:29;;;;;;;22.95;14.73;;;;;;;;;;5055223;28;20033;-62
2022/01/10 12:21:55;;;;;;;22.88;14.10;;;8.80;99.90;;;;;;5053174;28;20043;-64
2022/01/10 12:24:22;;;;;;;24.75;14.15;;;8.50;99.90;;;;;;5070141;28;20036;-63
2022/01/10 12:26:48;;;;;;;23.88;13.70;;;8.60;99.90;;;;;;5051106;28;20048;-64
2022/01/10 12:29:14;;;;;;;22.13;13.93;;;8.70;99.90;;;;;;5052571;28;20433;-64
2022/01/10 12:31:43;;;;;;;20.17;13.20;;;8.40;99.90;;;;;;5041366;28;20050;-64
2022/01/10 12:34:09;;;;;;;22.35;13.43;;;8.30;99.90;;;;;;5071079;28;20028;-65
2022/01/10 12:36:37;;;;;;;24.25;14.32;;;8.10;99.90;;;;;;5057254;28;20041;-65
2022/01/10 12:39:09;;;;;;;29.75;14.60;;;8.20;99.90;;;;;;5066891;28;20072;-66
2022/01/10 12:41:35;;;;;;;27.95;14.57;;;8.70;99.90;;;;;;5058402;28;20039;-65
2022/01/10 12:44:01;;;;;;;25.20;15.05;;;9.70;99.90;;;;;;5067588;28;20120;-66
2022/01/10 12:46:31;;;;;;;25.92;14.43;;;10.40;99.90;;;;;;5039767;28;20140;-64
2022/01/10 12:49:01;;;;;;;20.40;13.32;;;11.50;99.90;;;;;;5042629;28;20036;-64
2022/01/10 12:51:27;;;;;;;22.48;13.57;;;;;;;;;;5048805;28;20037;-65
2022/01/10 12:53:53;;;;;;;21.58;13.57;;;12.50;99.90;;;;;;5035802;28;20046;-64
2022/01/10 12:56:22;;;;;;;19.88;12.43;;;12.00;99.90;;;;;;5042452;28;20399;-65
2022/01/10 12:58:49;;;;;;;22.83;12.38;;;11.40;99.90;;;;;;5025230;28;20098;-65
2022/01/10 13:01:17;;;;;;;21.33;12.45;;;11.40;99.90;;;;;;5063766;28;20509;-65
2022/01/10 13:04:09;;;;;;;22.63;12.90;;;10.90;99.90;;;;;;5060003;28;20056;-66
2022/01/10 13:06:39;;;;;;;24.40;12.45;;;10.80;99.90;;;;;;5042370;28;20063;-66
2022/01/10 13:09:05;;;;;;;23.15;14.43;;;11.00;99.90;;;;;;5049490;28;20057;-67
2022/01/10 13:11:43;;;;;;;20.23;12.75;;;11.00;99.90;;;;;;5030500;28;20038;-66
2022/01/10 13:14:11;;;;;;;26.58;12.50;;;10.80;99.90;;;;;;5032404;28;20045;-65
2022/01/10 13:16:38;;;;;;;24.48;14.15;;;10.60;99.90;;;;;;5015889;28;20038;-65